Time;durP1;ratioP1;P1;durP2;ratioP2;P2;SDS_P1;SDS_P2;PMS_P1;PMS_P2;Temp;Humidity;BMP_temperature;BMP_pressure;BME280_temperature;BME280_humidity;BME280_pressure;Samples;Min_cycle;Max_cycle;Signal;HPM_P1;HPM_P2
2023/08/21 00:00:05;;;;;;;8.63;6.85;;;30.60;96.70;;;;;;5029496;28;20077;-80
2023/08/21 00:02:34;;;;;;;6.88;6.18;;;30.60;96.70;;;;;;5020829;28;20041;-79
2023/08/21 00:05:03;;;;;;;6.85;6.20;;;30.50;96.70;;;;;;5036664;28;20064;-79
2023/08/21 00:07:32;;;;;;;6.85;6.25;;;30.50;96.70;;;;;;5034292;28;20042;-79
2023/08/21 00:10:01;;;;;;;7.00;6.30;;;30.50;96.70;;;;;;5024789;28;20042;-80
2023/08/21 00:12:29;;;;;;;7.55;6.95;;;30.40;96.70;;;;;;5029848;28;20045;-79
2023/08/21 00:14:59;;;;;;;7.50;6.80;;;30.40;96.70;;;;;;5032967;28;20040;-80
2023/08/21 00:17:28;;;;;;;6.85;6.25;;;30.40;96.70;;;;;;5024854;28;20046;-80
2023/08/21 00:19:56;;;;;;;7.50;6.72;;;30.40;96.70;;;;;;5026931;28;20065;-80
2023/08/21 00:22:25;;;;;;;7.03;6.43;;;30.50;96.70;;;;;;5028435;28;20484;-80
2023/08/21 00:24:53;;;;;;;7.82;7.05;;;30.50;96.70;;;;;;5021876;28;20048;-80
2023/08/21 00:27:22;;;;;;;7.13;6.53;;;30.40;96.70;;;;;;5015670;28;20042;-79
2023/08/21 00:29:50;;;;;;;7.15;6.55;;;30.40;96.70;;;;;;5017871;28;20049;-79
2023/08/21 00:32:20;;;;;;;6.95;6.35;;;30.50;96.70;;;;;;5001573;28;20049;-78
2023/08/21 00:34:48;;;;;;;6.22;5.72;;;30.50;96.70;;;;;;5004777;28;20120;-79
2023/08/21 00:37:17;;;;;;;7.85;6.32;;;30.50;96.70;;;;;;5023738;28;20049;-80
2023/08/21 00:39:45;;;;;;;9.20;6.55;;;30.40;96.70;;;;;;5024787;28;20586;-79
2023/08/21 00:42:14;;;;;;;7.63;6.22;;;30.40;96.70;;;;;;5025695;28;20049;-78
2023/08/21 00:44:42;;;;;;;6.55;6.00;;;30.40;96.70;;;;;;5025789;28;20057;-80
2023/08/21 00:47:10;;;;;;;7.20;6.50;;;30.40;96.70;;;;;;5021232;28;20070;-79
2023/08/21 00:49:41;;;;;;;6.82;6.22;;;30.30;96.70;;;;;;5026110;28;20411;-79
2023/08/21 00:52:12;;;;;;;7.18;6.53;;;30.20;96.70;;;;;;5026389;28;20040;-79
2023/08/21 00:54:41;;;;;;;7.60;6.75;;;29.90;96.70;;;;;;5028099;28;20132;-80
2023/08/21 00:57:10;;;;;;;8.00;6.57;;;29.90;96.70;;;;;;5026086;28;20041;-79
2023/08/21 00:59:39;;;;;;;7.00;6.28;;;29.90;96.70;;;;;;5024418;28;20133;-79
2023/08/21 01:02:07;;;;;;;7.07;6.38;;;30.00;96.70;;;;;;5026478;28;20049;-81
2023/08/21 01:04:36;;;;;;;7.03;6.32;;;30.00;96.70;;;;;;5027107;28;20045;-79
2023/08/21 01:07:09;;;;;;;6.90;6.40;;;30.00;96.70;;;;;;5005932;28;20143;-80
2023/08/21 01:09:45;;;;;;;6.95;6.38;;;30.00;96.70;;;;;;5009717;28;20534;-81
2023/08/21 01:12:23;;;;;;;6.97;6.38;;;29.90;96.70;;;;;;5008075;28;20052;-80
2023/08/21 01:14:58;;;;;;;6.70;6.05;;;29.90;96.70;;;;;;5024078;28;20062;-80
2023/08/21 01:17:28;;;;;;;7.45;6.85;;;29.80;96.70;;;;;;5027075;28;20430;-79
2023/08/21 01:19:58;;;;;;;6.93;6.32;;;29.70;96.70;;;;;;5025917;28;20049;-79
2023/08/21 01:22:36;;;;;;;7.35;6.63;;;29.70;96.70;;;;;;5021737;28;20030;-80
2023/08/21 01:25:11;;;;;;;8.63;7.30;;;29.80;96.70;;;;;;5024387;28;20140;-80
2023/08/21 01:27:44;;;;;;;7.35;6.75;;;29.70;96.70;;;;;;5017675;28;20125;-80
2023/08/21 01:30:13;;;;;;;6.88;6.25;;;29.70;96.70;;;;;;5029792;28;20061;-79
2023/08/21 01:32:58;;;;;;;7.93;6.32;;;29.70;96.70;;;;;;5030560;28;20406;-79
2023/08/21 01:35:30;;;;;;;6.97;6.37;;;29.60;96.70;;;;;;5030879;28;20405;-79
2023/08/21 01:37:58;;;;;;;7.30;6.70;;;29.60;96.70;;;;;;5022965;28;20334;-79
2023/08/21 01:40:29;;;;;;;8.45;6.90;;;29.60;96.70;;;;;;5025971;28;20056;-80
2023/08/21 01:42:59;;;;;;;7.38;6.68;;;29.60;96.70;;;;;;5025960;28;20077;-80
2023/08/21 01:45:28;;;;;;;7.00;6.43;;;29.60;96.70;;;;;;5021306;28;20038;-80
2023/08/21 01:47:56;;;;;;;9.18;6.70;;;29.50;96.70;;;;;;5029484;28;20137;-80
2023/08/21 01:50:25;;;;;;;7.80;7.05;;;29.50;96.70;;;;;;5039236;28;20365;-80
2023/08/21 01:52:54;;;;;;;7.43;6.72;;;29.50;96.70;;;;;;5025694;28;20116;-79
2023/08/21 01:55:23;;;;;;;8.68;6.47;;;29.50;96.70;;;;;;5026439;28;20085;-80
2023/08/21 01:57:53;;;;;;;7.60;6.85;;;29.40;96.70;;;;;;5031558;28;20049;-81
2023/08/21 02:00:21;;;;;;;7.22;6.40;;;29.30;96.70;;;;;;5030060;28;20127;-79
2023/08/21 02:02:50;;;;;;;7.07;6.53;;;29.20;96.70;;;;;;5025396;28;20038;-80
2023/08/21 02:05:18;;;;;;;8.15;7.00;;;29.20;96.70;;;;;;5024698;28;20053;-80
2023/08/21 02:07:46;;;;;;;7.82;7.03;;;29.30;96.70;;;;;;5030586;28;20042;-80
2023/08/21 02:10:16;;;;;;;7.35;6.68;;;29.20;96.70;;;;;;5023803;28;20107;-80
2023/08/21 02:12:44;;;;;;;7.78;7.15;;;28.70;96.70;;;;;;5030183;28;20033;-79
2023/08/21 02:15:15;;;;;;;7.90;7.20;;;28.50;96.70;;;;;;5020349;28;20074;-80
2023/08/21 02:17:44;;;;;;;7.55;6.85;;;28.50;96.70;;;;;;5022969;28;20041;-80
2023/08/21 02:20:13;;;;;;;7.72;6.85;;;28.50;96.70;;;;;;5032028;28;20049;-80
2023/08/21 02:22:42;;;;;;;9.30;7.18;;;28.60;96.70;;;;;;5026485;28;20562;-79
2023/08/21 02:25:10;;;;;;;8.25;7.40;;;28.60;96.70;;;;;;5017975;28;20045;-79
2023/08/21 02:27:39;;;;;;;9.68;7.40;;;28.60;96.70;;;;;;5024010;28;20037;-80
2023/08/21 02:30:08;;;;;;;8.25;7.25;;;28.60;96.70;;;;;;5049698;28;20057;-80
2023/08/21 02:32:39;;;;;;;9.98;6.95;;;28.50;96.70;;;;;;5031532;28;20102;-79
2023/08/21 02:35:09;;;;;;;7.18;6.57;;;28.30;96.70;;;;;;5031556;28;20052;-80
2023/08/21 02:37:38;;;;;;;7.32;6.72;;;28.20;96.70;;;;;;5043127;28;20135;-82
2023/08/21 02:40:08;;;;;;;8.10;7.25;;;28.20;96.70;;;;;;5029653;28;20053;-80
2023/08/21 02:42:36;;;;;;;7.85;7.25;;;28.20;96.70;;;;;;5031541;28;20043;-80
2023/08/21 02:45:09;;;;;;;7.90;7.30;;;28.20;96.70;;;;;;5047857;28;20453;-79
2023/08/21 02:47:40;;;;;;;8.35;7.55;;;28.10;96.70;;;;;;5054288;28;20091;-81
2023/08/21 02:50:10;;;;;;;8.82;7.03;;;28.20;96.70;;;;;;5047175;28;20048;-80
2023/08/21 02:52:38;;;;;;;7.35;6.53;;;28.20;96.70;;;;;;5052229;28;20482;-80
2023/08/21 02:55:09;;;;;;;8.73;6.95;;;28.30;96.70;;;;;;5047070;28;20118;-80
2023/08/21 02:57:37;;;;;;;7.75;7.00;;;28.30;96.70;;;;;;5030700;28;20044;-80
2023/08/21 03:00:10;;;;;;;7.40;6.70;;;28.40;96.70;;;;;;5049182;28;20044;-80
2023/08/21 03:02:43;;;;;;;7.63;6.95;;;28.50;96.70;;;;;;5046714;28;20135;-79
2023/08/21 03:05:14;;;;;;;7.70;7.10;;;28.50;96.70;;;;;;5047173;28;20067;-80
2023/08/21 03:07:42;;;;;;;7.95;7.20;;;28.50;96.70;;;;;;5075915;28;20083;-80
2023/08/21 03:10:11;;;;;;;7.57;6.97;;;28.40;96.70;;;;;;5058856;28;20081;-80
2023/08/21 03:12:40;;;;;;;7.88;7.20;;;28.30;96.70;;;;;;5031129;28;20048;-80
2023/08/21 03:15:09;;;;;;;7.60;7.00;;;28.20;96.70;;;;;;5053644;28;20102;-81
2023/08/21 03:17:37;;;;;;;7.80;7.07;;;28.20;96.70;;;;;;5080349;28;20541;-80
2023/08/21 03:20:08;;;;;;;7.80;7.00;;;28.20;96.70;;;;;;5039623;28;20032;-81
2023/08/21 03:22:37;;;;;;;8.30;7.60;;;28.30;96.70;;;;;;5045887;28;20897;-80
2023/08/21 03:25:06;;;;;;;8.20;7.40;;;28.20;96.70;;;;;;5046386;28;20071;-80
2023/08/21 03:27:39;;;;;;;7.95;7.20;;;28.20;96.70;;;;;;5045712;28;20105;-81
2023/08/21 03:30:07;;;;;;;8.60;7.78;;;28.20;96.70;;;;;;5040404;28;20725;-80
2023/08/21 03:32:38;;;;;;;8.35;7.65;;;28.20;96.70;;;;;;5044552;28;20487;-81
2023/08/21 03:35:08;;;;;;;8.13;7.43;;;28.20;96.70;;;;;;5045769;28;20060;-81
2023/08/21 03:37:36;;;;;;;8.07;7.43;;;28.30;96.70;;;;;;5042589;28;20045;-80
2023/08/21 03:40:07;;;;;;;7.68;6.90;;;28.10;96.70;;;;;;5029103;28;20040;-81
2023/08/21 03:42:36;;;;;;;7.38;6.75;;;28.00;96.70;;;;;;5063945;28;20094;-80
2023/08/21 03:45:06;;;;;;;8.02;7.32;;;28.10;96.70;;;;;;5046771;28;20053;-80
2023/08/21 03:47:34;;;;;;;8.10;7.15;;;28.10;96.70;;;;;;5046643;28;20155;-81
2023/08/21 03:50:10;;;;;;;8.48;7.68;;;28.00;96.70;;;;;;5026232;28;20041;-80
2023/08/21 03:52:38;;;;;;;8.23;7.43;;;27.90;96.70;;;;;;5044857;28;20518;-80
2023/08/21 03:55:09;;;;;;;8.48;7.60;;;27.80;96.70;;;;;;5029287;28;20155;-80
2023/08/21 03:57:37;;;;;;;8.80;7.50;;;27.80;96.70;;;;;;5060296;28;20129;-80
2023/08/21 04:00:07;;;;;;;8.35;7.53;;;27.70;96.70;;;;;;5045579;28;20040;-80
2023/08/21 04:02:41;;;;;;;;;;;27.80;96.70;;;;;;5047658;28;20044;-81
2023/08/21 04:05:12;;;;;;;8.30;7.65;;;27.90;96.70;;;;;;5029126;28;19924;-81
2023/08/21 04:07:40;;;;;;;8.77;8.00;;;27.70;96.70;;;;;;5029142;28;20056;-81
2023/08/21 04:10:08;;;;;;;8.45;7.68;;;27.60;96.70;;;;;;5026507;28;20495;-81
2023/08/21 04:12:37;;;;;;;8.52;7.82;;;27.60;96.70;;;;;;5044563;28;20083;-80
2023/08/21 04:15:06;;;;;;;9.27;8.27;;;27.60;96.70;;;;;;5045131;28;20107;-79
2023/08/21 04:17:35;;;;;;;9.38;8.30;;;27.60;96.70;;;;;;5059264;28;20446;-81
2023/08/21 04:20:04;;;;;;;8.52;7.70;;;27.40;96.70;;;;;;5034931;28;20123;-80
2023/08/21 04:22:36;;;;;;;12.40;7.65;;;27.70;96.70;;;;;;5048548;28;20059;-80
2023/08/21 04:25:06;;;;;;;8.02;7.32;;;27.60;96.70;;;;;;5068050;28;20452;-80
2023/08/21 04:27:35;;;;;;;8.63;7.88;;;27.30;96.70;;;;;;5049435;28;20048;-81
2023/08/21 04:30:04;;;;;;;8.57;7.78;;;27.20;96.70;;;;;;5049512;28;20059;-80
2023/08/21 04:32:33;;;;;;;8.32;7.63;;;27.40;96.70;;;;;;5041788;28;20045;-81
2023/08/21 04:35:01;;;;;;;8.65;7.63;;;27.30;96.70;;;;;;5029736;28;20144;-81
2023/08/21 04:37:29;;;;;;;8.50;7.80;;;27.30;96.70;;;;;;5049177;28;20060;-80
2023/08/21 04:39:59;;;;;;;8.57;7.72;;;27.30;96.70;;;;;;5046156;28;20075;-80
2023/08/21 04:42:27;;;;;;;9.00;8.10;;;27.50;96.70;;;;;;5049358;28;20314;-81
2023/08/21 04:44:56;;;;;;;8.57;7.72;;;27.50;96.70;;;;;;5044113;28;20052;-81
2023/08/21 04:47:26;;;;;;;9.05;8.15;;;27.50;96.70;;;;;;5026367;28;20448;-81
2023/08/21 04:49:58;;;;;;;8.75;7.90;;;27.40;96.70;;;;;;5049401;28;20489;-81
2023/08/21 04:52:28;;;;;;;8.57;7.82;;;27.10;96.70;;;;;;5049452;28;20048;-80
2023/08/21 04:54:58;;;;;;;9.98;8.13;;;27.20;96.70;;;;;;5057861;28;20078;-79
2023/08/21 04:57:28;;;;;;;9.27;8.23;;;27.20;96.70;;;;;;5044950;28;20141;-80
2023/08/21 04:59:57;;;;;;;11.07;8.48;;;27.40;96.70;;;;;;5047013;28;20057;-79
2023/08/21 05:02:34;;;;;;;9.10;8.23;;;27.50;96.70;;;;;;5049913;28;20122;-80
2023/08/21 05:05:04;;;;;;;9.25;8.30;;;27.40;96.70;;;;;;5049613;28;20102;-80
2023/08/21 05:07:33;;;;;;;9.25;8.45;;;27.40;96.70;;;;;;5048505;28;20036;-81
2023/08/21 05:10:03;;;;;;;8.43;7.63;;;27.40;96.70;;;;;;5047631;28;20052;-81
2023/08/21 05:12:35;;;;;;;9.50;8.57;;;27.30;96.70;;;;;;5049161;28;20053;-81
2023/08/21 05:15:04;;;;;;;8.75;8.00;;;27.40;96.70;;;;;;5060392;28;20127;-81
2023/08/21 05:17:32;;;;;;;8.70;7.95;;;27.20;96.70;;;;;;5049005;28;20044;-80
2023/08/21 05:20:00;;;;;;;9.57;8.73;;;27.40;96.70;;;;;;5047727;28;20505;-81
2023/08/21 05:22:29;;;;;;;8.90;8.00;;;27.30;96.70;;;;;;5049124;28;20045;-80
2023/08/21 05:24:57;;;;;;;8.57;7.65;;;27.40;96.70;;;;;;5048387;28;20094;-81
2023/08/21 05:27:27;;;;;;;8.63;7.93;;;27.50;96.70;;;;;;5057908;28;20445;-80
2023/08/21 05:29:55;;;;;;;8.75;7.95;;;27.60;96.70;;;;;;5049921;28;20064;-80
2023/08/21 05:32:23;;;;;;;8.85;7.85;;;27.60;96.70;;;;;;5049213;28;20074;-81
2023/08/21 05:34:52;;;;;;;9.50;8.60;;;27.50;96.70;;;;;;5066050;28;20044;-80
2023/08/21 05:37:20;;;;;;;8.93;8.13;;;27.20;96.70;;;;;;5045235;28;20368;-81
2023/08/21 05:39:49;;;;;;;9.82;8.88;;;27.30;96.70;;;;;;5031725;28;20059;-81
2023/08/21 05:42:17;;;;;;;9.93;8.32;;;27.40;96.70;;;;;;5048438;28;20131;-81
2023/08/21 05:44:47;;;;;;;9.23;8.18;;;27.40;96.70;;;;;;5049187;28;20487;-80
2023/08/21 05:47:16;;;;;;;9.52;8.60;;;27.60;96.70;;;;;;5032253;28;20106;-80
2023/08/21 05:49:44;;;;;;;10.00;8.40;;;27.70;96.70;;;;;;5047183;28;20048;-80
2023/08/21 05:52:13;;;;;;;8.68;7.88;;;27.70;96.70;;;;;;5064546;28;20055;-80
2023/08/21 05:54:41;;;;;;;11.00;8.30;;;27.70;96.70;;;;;;5044529;28;20123;-79
2023/08/21 05:57:09;;;;;;;8.65;7.93;;;27.70;96.70;;;;;;5063503;28;20045;-78
2023/08/21 05:59:44;;;;;;;8.98;8.25;;;27.70;96.70;;;;;;5056915;28;20067;-79
2023/08/21 06:02:14;;;;;;;8.50;7.80;;;27.90;96.70;;;;;;5047467;28;20575;-81
2023/08/21 06:04:43;;;;;;;11.13;8.05;;;28.10;96.70;;;;;;5047761;28;20076;-78
2023/08/21 06:07:11;;;;;;;9.50;8.32;;;28.10;96.70;;;;;;5048032;28;20489;-80
2023/08/21 06:09:39;;;;;;;8.40;7.60;;;28.10;96.70;;;;;;5047913;28;20051;-80
2023/08/21 06:12:09;;;;;;;9.32;8.40;;;28.20;96.70;;;;;;5047781;28;20151;-81
2023/08/21 06:14:39;;;;;;;9.93;8.82;;;28.20;96.70;;;;;;5029485;28;20063;-79
2023/08/21 06:17:10;;;;;;;8.88;8.07;;;28.30;96.70;;;;;;5056562;28;20048;-80
2023/08/21 06:19:40;;;;;;;8.95;7.93;;;28.40;96.70;;;;;;5048786;28;20048;-80
2023/08/21 06:22:08;;;;;;;8.60;7.80;;;28.50;96.70;;;;;;5047486;28;20056;-81
2023/08/21 06:24:36;;;;;;;8.50;7.78;;;28.50;96.70;;;;;;5046280;28;20044;-80
2023/08/21 06:27:08;;;;;;;9.70;8.80;;;28.50;96.70;;;;;;5045540;28;20122;-79
2023/08/21 06:29:40;;;;;;;9.48;8.52;;;28.50;96.70;;;;;;5046917;28;20472;-80
2023/08/21 06:32:08;;;;;;;9.65;8.85;;;28.60;96.70;;;;;;5063039;28;20048;-80
2023/08/21 06:34:39;;;;;;;12.73;8.80;;;28.60;96.70;;;;;;5044837;28;20464;-79
2023/08/21 06:37:07;;;;;;;10.75;9.65;;;28.60;96.70;;;;;;5044700;28;20040;-79
2023/08/21 06:39:35;;;;;;;9.90;8.82;;;28.60;96.70;;;;;;5030143;28;20128;-79
2023/08/21 06:42:04;;;;;;;10.57;9.00;;;28.60;96.70;;;;;;5047099;28;20046;-79
2023/08/21 06:44:40;;;;;;;10.27;9.30;;;28.70;96.70;;;;;;5046796;28;20072;-79
2023/08/21 06:47:09;;;;;;;9.90;8.90;;;28.80;96.70;;;;;;5065030;28;20064;-85
2023/08/21 06:49:39;;;;;;;8.88;8.07;;;28.90;96.70;;;;;;5045185;28;20182;-83
2023/08/21 06:52:08;;;;;;;9.35;8.55;;;28.90;96.70;;;;;;5032865;28;20048;-82
2023/08/21 06:54:36;;;;;;;9.70;8.90;;;28.90;96.70;;;;;;5045181;28;20414;-82
2023/08/21 06:57:04;;;;;;;9.07;8.27;;;29.00;96.70;;;;;;5047983;28;20098;-82
2023/08/21 06:59:35;;;;;;;9.15;8.27;;;29.00;96.70;;;;;;5045976;28;20037;-84
2023/08/21 07:02:04;;;;;;;9.02;8.23;;;29.10;96.70;;;;;;5057803;28;20057;-79
2023/08/21 07:04:35;;;;;;;9.27;8.23;;;29.10;96.70;;;;;;5036158;28;20106;-79
2023/08/21 07:07:05;;;;;;;9.10;8.30;;;29.10;96.70;;;;;;5047019;28;20502;-81
2023/08/21 07:09:33;;;;;;;9.25;8.13;;;29.20;96.70;;;;;;5042936;28;20041;-78
2023/08/21 07:12:01;;;;;;;9.27;8.38;;;29.30;96.70;;;;;;5040356;28;20521;-78
2023/08/21 07:14:29;;;;;;;9.88;8.30;;;29.40;96.70;;;;;;5044982;28;20420;-79
2023/08/21 07:16:57;;;;;;;8.80;7.90;;;29.40;96.70;;;;;;5054618;28;20051;-78
2023/08/21 07:19:25;;;;;;;9.82;8.70;;;29.50;96.70;;;;;;5046018;28;20049;-80
2023/08/21 07:21:53;;;;;;;10.75;7.70;;;29.50;96.70;;;;;;5044650;28;20040;-80
2023/08/21 07:24:23;;;;;;;9.18;8.23;;;29.60;96.70;;;;;;5054437;28;20037;-80
2023/08/21 07:26:51;;;;;;;11.15;8.45;;;29.70;96.70;;;;;;5053411;28;20148;-79
2023/08/21 07:29:19;;;;;;;9.27;8.07;;;29.70;96.70;;;;;;5046931;28;20064;-79
2023/08/21 07:31:47;;;;;;;8.63;7.80;;;29.70;96.70;;;;;;5055954;28;20057;-82
2023/08/21 07:34:15;;;;;;;9.88;8.20;;;29.80;96.70;;;;;;5039470;28;20573;-83
2023/08/21 07:36:44;;;;;;;8.65;7.85;;;29.90;96.70;;;;;;5047681;28;20455;-82
2023/08/21 07:39:12;;;;;;;10.85;8.07;;;29.90;96.70;;;;;;5047064;28;20102;-82
2023/08/21 07:41:42;;;;;;;9.65;7.82;;;30.00;96.70;;;;;;5046898;28;20044;-81
2023/08/21 07:44:10;;;;;;;8.68;7.80;;;30.00;96.70;;;;;;5048800;28;21018;-81
2023/08/21 07:46:38;;;;;;;8.27;7.47;;;30.10;96.70;;;;;;5042776;28;20071;-82
2023/08/21 07:49:06;;;;;;;12.75;8.57;;;30.20;96.70;;;;;;5047489;28;20044;-82
2023/08/21 07:51:34;;;;;;;8.55;7.75;;;30.20;96.70;;;;;;5056649;28;20038;-81
2023/08/21 07:54:02;;;;;;;9.15;8.27;;;30.30;96.70;;;;;;5046896;28;20060;-82
2023/08/21 07:56:31;;;;;;;8.88;8.13;;;30.40;96.70;;;;;;5045865;28;20237;-81
2023/08/21 07:59:00;;;;;;;8.98;8.18;;;30.40;96.70;;;;;;5049248;28;20040;-82
2023/08/21 08:01:29;;;;;;;11.20;8.60;;;30.40;96.70;;;;;;5053240;28;20510;-81
2023/08/21 08:03:57;;;;;;;9.18;8.38;;;30.50;96.70;;;;;;5065235;28;20570;-81
2023/08/21 08:06:25;;;;;;;8.65;7.80;;;30.70;96.70;;;;;;5028084;28;20041;-82
2023/08/21 08:08:53;;;;;;;10.00;9.02;;;30.80;96.70;;;;;;5047148;28;20123;-83
2023/08/21 08:11:21;;;;;;;8.57;7.70;;;30.90;96.70;;;;;;5045746;28;20051;-83
2023/08/21 08:13:49;;;;;;;9.60;7.70;;;30.90;96.70;;;;;;5043696;28;20033;-81
2023/08/21 08:16:19;;;;;;;8.75;7.95;;;31.00;96.70;;;;;;5027835;28;20057;-82
2023/08/21 08:18:48;;;;;;;9.93;7.40;;;31.10;96.70;;;;;;5030817;28;20173;-81
2023/08/21 08:21:17;;;;;;;8.82;7.85;;;31.20;96.70;;;;;;5055484;28;20045;-83
2023/08/21 08:23:45;;;;;;;8.35;7.55;;;31.30;96.70;;;;;;5056104;28;20644;-82
2023/08/21 08:26:13;;;;;;;11.70;8.13;;;31.30;96.70;;;;;;5028238;28;20612;-81
2023/08/21 08:28:41;;;;;;;8.13;7.32;;;31.30;96.70;;;;;;5046780;28;20486;-81
2023/08/21 08:31:15;;;;;;;8.27;6.97;;;31.40;96.70;;;;;;5058582;28;20395;-82
2023/08/21 08:33:44;;;;;;;7.60;6.88;;;31.50;96.70;;;;;;5047754;28;20045;-82
2023/08/21 08:36:12;;;;;;;7.97;7.18;;;31.60;96.70;;;;;;5056028;28;20055;-83
2023/08/21 08:38:40;;;;;;;9.85;7.43;;;31.60;96.70;;;;;;5065174;28;20095;-81
2023/08/21 08:41:27;;;;;;;8.18;7.30;;;31.70;96.70;;;;;;5047645;28;20490;-83
2023/08/21 08:43:58;;;;;;;6.97;6.38;;;31.70;96.70;;;;;;5044043;28;20506;-82
2023/08/21 08:46:28;;;;;;;7.25;6.45;;;31.80;96.70;;;;;;5046824;28;20053;-81
2023/08/21 08:49:00;;;;;;;8.43;6.68;;;31.90;96.70;;;;;;5043932;28;20103;-82
2023/08/21 08:51:30;;;;;;;6.80;6.10;;;32.00;96.70;;;;;;5044298;28;20483;-83
2023/08/21 08:53:59;;;;;;;6.82;6.22;;;32.20;96.70;;;;;;5077805;28;20770;-82
2023/08/21 08:56:27;;;;;;;7.35;6.65;;;32.30;96.70;;;;;;5056255;28;20425;-80
2023/08/21 08:58:55;;;;;;;7.15;6.47;;;32.40;96.70;;;;;;5045099;28;20054;-82
2023/08/21 09:01:23;;;;;;;7.10;6.50;;;32.40;96.70;;;;;;5046578;28;20110;-82
2023/08/21 09:03:51;;;;;;;11.30;7.00;;;32.50;96.70;;;;;;5053548;28;20049;-82
2023/08/21 09:06:20;;;;;;;7.68;6.97;;;32.70;96.70;;;;;;5069181;28;20036;-82
2023/08/21 09:08:54;;;;;;;7.57;6.70;;;32.80;96.70;;;;;;5049342;28;20045;-82
2023/08/21 09:11:22;;;;;;;9.77;6.57;;;32.80;96.70;;;;;;5048883;28;20036;-82
2023/08/21 09:13:52;;;;;;;7.82;7.13;;;32.80;96.70;;;;;;5031358;28;20115;-81
2023/08/21 09:16:20;;;;;;;7.65;6.97;;;33.00;96.70;;;;;;5049768;28;20053;-81
2023/08/21 09:18:49;;;;;;;8.57;6.72;;;33.00;96.70;;;;;;5049770;28;20049;-81
2023/08/21 09:21:17;;;;;;;7.85;6.95;;;33.00;96.70;;;;;;5065785;28;20383;-82
2023/08/21 09:23:48;;;;;;;6.97;6.35;;;33.00;96.70;;;;;;5049429;28;20079;-81
2023/08/21 09:26:22;;;;;;;7.15;6.18;;;33.10;96.70;;;;;;5049835;28;20045;-82
2023/08/21 09:28:51;;;;;;;8.48;6.88;;;33.20;96.70;;;;;;5050107;28;20091;-82
2023/08/21 09:31:23;;;;;;;7.47;6.75;;;33.30;96.70;;;;;;5061329;28;20079;-80
2023/08/21 09:33:59;;;;;;;6.88;6.38;;;33.40;96.70;;;;;;5049763;28;20044;-83
2023/08/21 09:36:27;;;;;;;6.63;5.97;;;33.20;96.70;;;;;;5049664;28;20149;-82
2023/08/21 09:38:56;;;;;;;5.70;5.20;;;33.40;96.70;;;;;;5061339;28;20123;-82
2023/08/21 09:41:25;;;;;;;8.05;5.53;;;33.70;96.70;;;;;;5050116;28;21029;-82
2023/08/21 09:43:58;;;;;;;5.82;5.25;;;33.90;96.70;;;;;;5033392;28;20066;-82
2023/08/21 09:46:27;;;;;;;6.18;4.78;;;34.00;96.70;;;;;;5030663;28;20118;-82
2023/08/21 09:48:56;;;;;;;6.80;5.45;;;34.10;96.70;;;;;;5048727;28;20055;-82
2023/08/21 09:51:26;;;;;;;6.40;5.63;;;34.20;96.70;;;;;;5052799;28;20120;-81
2023/08/21 09:53:56;;;;;;;7.45;5.20;;;34.20;96.70;;;;;;5049008;28;20063;-81
2023/08/21 09:56:26;;;;;;;6.63;5.32;;;34.10;96.70;;;;;;5049408;28;20053;-82
2023/08/21 09:58:54;;;;;;;5.28;4.65;;;34.40;96.70;;;;;;5032094;28;20110;-81
2023/08/21 10:01:23;;;;;;;6.47;4.80;;;34.40;96.70;;;;;;5047746;28;20479;-81
2023/08/21 10:03:56;;;;;;;7.10;4.82;;;34.40;96.70;;;;;;5053273;28;20047;-82
2023/08/21 10:06:25;;;;;;;6.53;4.70;;;34.40;96.70;;;;;;5065651;28;20049;-82
2023/08/21 10:08:55;;;;;;;5.38;4.50;;;34.50;96.70;;;;;;5049001;28;20079;-82
2023/08/21 10:11:24;;;;;;;4.90;4.50;;;34.60;96.70;;;;;;5031344;28;20053;-82
2023/08/21 10:13:52;;;;;;;5.00;4.50;;;34.60;96.70;;;;;;5050874;28;20119;-82
2023/08/21 10:16:21;;;;;;;6.35;4.45;;;34.60;96.70;;;;;;5061260;28;20040;-82
2023/08/21 10:18:51;;;;;;;4.45;3.97;;;34.70;96.70;;;;;;5056470;28;20044;-82
2023/08/21 10:21:20;;;;;;;9.63;4.53;;;35.00;96.70;;;;;;5062507;28;20848;-82
2023/08/21 10:23:49;;;;;;;4.05;3.72;;;35.20;96.70;;;;;;5031887;28;20454;-82
2023/08/21 10:26:20;;;;;;;5.28;4.15;;;35.20;96.70;;;;;;5041378;28;20048;-82
2023/08/21 10:28:54;;;;;;;4.47;3.90;;;35.10;96.70;;;;;;5066933;28;20079;-80
2023/08/21 10:31:34;;;;;;;9.32;3.83;;;35.30;96.70;;;;;;5051449;28;20049;-82
2023/08/21 10:34:04;;;;;;;4.45;4.05;;;35.40;96.70;;;;;;5032173;28;20048;-82
2023/08/21 10:37:09;;;;;;;4.78;4.25;;;35.40;96.70;;;;;;5048317;28;20102;-81
2023/08/21 10:39:39;;;;;;;6.15;3.90;;;35.50;96.70;;;;;;5047023;28;20139;-83
2023/08/21 10:42:13;;;;;;;5.53;3.85;;;35.70;96.70;;;;;;5063539;28;20048;-82
2023/08/21 10:44:52;;;;;;;4.35;3.95;;;35.60;96.70;;;;;;5057625;28;20049;-82
2023/08/21 10:47:22;;;;;;;4.57;3.70;;;35.50;96.70;;;;;;5032538;28;20401;-83
2023/08/21 10:49:53;;;;;;;5.15;3.78;;;35.50;96.70;;;;;;5048189;28;20526;-82
2023/08/21 10:52:23;;;;;;;4.00;3.50;;;35.60;96.70;;;;;;5056284;28;20055;-82
2023/08/21 10:54:52;;;;;;;5.90;4.25;;;35.60;96.70;;;;;;5032238;28;20429;-81
2023/08/21 10:57:21;;;;;;;3.42;3.13;;;35.70;96.70;;;;;;5049068;28;20094;-80
2023/08/21 10:59:55;;;;;;;4.07;3.70;;;35.80;96.70;;;;;;5059559;28;20043;-81
2023/08/21 11:02:24;;;;;;;4.78;3.67;;;36.00;96.70;;;;;;5047694;28;20056;-83
2023/08/21 11:04:52;;;;;;;4.30;3.90;;;35.90;96.70;;;;;;5047018;28;20509;-84
2023/08/21 11:07:21;;;;;;;5.68;3.28;;;35.80;96.70;;;;;;5056333;28;20045;-83
2023/08/21 11:09:49;;;;;;;4.72;3.55;;;35.80;96.70;;;;;;5056371;28;20051;-82
2023/08/21 11:12:20;;;;;;;7.78;4.10;;;36.30;96.70;;;;;;5031487;28;20052;-82
2023/08/21 11:14:48;;;;;;;4.50;3.95;;;36.20;96.70;;;;;;5047853;28;20098;-82
2023/08/21 11:17:23;;;;;;;7.10;4.20;;;36.30;96.70;;;;;;5060854;28;20044;-83
2023/08/21 11:19:51;;;;;;;4.65;3.22;;;36.20;96.70;;;;;;5048137;28;20052;-82
2023/08/21 11:22:19;;;;;;;4.70;3.97;;;36.40;96.70;;;;;;5047912;28;20041;-83
2023/08/21 11:24:48;;;;;;;4.22;3.85;;;36.80;96.70;;;;;;5031292;28;20201;-81
2023/08/21 11:27:18;;;;;;;4.40;4.00;;;37.00;96.70;;;;;;5027866;28;20045;-82
2023/08/21 11:29:48;;;;;;;5.35;3.78;;;37.00;96.70;;;;;;5030363;28;20056;-82
2023/08/21 11:32:19;;;;;;;4.07;3.78;;;37.00;96.70;;;;;;5051213;28;20044;-82
2023/08/21 11:34:51;;;;;;;4.45;3.97;;;37.00;96.70;;;;;;5047271;28;20132;-81
2023/08/21 11:37:21;;;;;;;6.18;4.22;;;37.10;96.70;;;;;;5052094;28;20044;-83
2023/08/21 11:39:54;;;;;;;4.25;3.85;;;37.30;96.70;;;;;;5055951;28;20052;-82
2023/08/21 11:42:29;;;;;;;6.95;3.95;;;37.30;96.70;;;;;;5044624;28;20735;-82
2023/08/21 11:44:58;;;;;;;4.20;3.90;;;37.40;96.70;;;;;;5052962;28;20238;-83
2023/08/21 11:47:32;;;;;;;4.78;4.40;;;37.40;96.70;;;;;;5044206;28;20087;-83
2023/08/21 11:50:04;;;;;;;4.45;3.92;;;37.10;96.70;;;;;;5040011;28;20048;-82
2023/08/21 11:52:33;;;;;;;4.15;3.80;;;36.90;96.70;;;;;;5044953;28;20472;-82
2023/08/21 11:55:01;;;;;;;4.53;4.15;;;37.00;96.70;;;;;;5046957;28;20510;-83
2023/08/21 11:57:30;;;;;;;4.90;3.78;;;37.10;96.70;;;;;;5059849;28;20052;-83
2023/08/21 11:59:57;;;;;;;5.05;3.70;;;37.00;96.70;;;;;;5064233;28;20699;-82
2023/08/21 12:02:28;;;;;;;5.70;3.72;;;36.90;96.70;;;;;;5048464;28;20140;-86
2023/08/21 12:05:03;;;;;;;5.07;3.80;;;36.90;96.70;;;;;;5039965;28;20050;-81
2023/08/21 12:07:31;;;;;;;4.78;4.38;;;36.80;96.70;;;;;;5064721;28;20040;-83
2023/08/21 12:09:59;;;;;;;4.13;3.70;;;36.90;96.70;;;;;;5030348;28;20048;-82
2023/08/21 12:12:27;;;;;;;4.47;4.03;;;36.90;96.70;;;;;;5047302;28;20063;-82
2023/08/21 12:14:55;;;;;;;6.07;3.88;;;37.00;96.70;;;;;;5063348;28;20063;-82
2023/08/21 12:17:23;;;;;;;4.63;4.22;;;37.20;96.70;;;;;;5029345;28;20101;-81
2023/08/21 12:19:53;;;;;;;6.20;4.18;;;37.10;96.70;;;;;;5047317;28;20620;-82
2023/08/21 12:22:21;;;;;;;4.05;3.75;;;37.10;96.70;;;;;;5047025;28;20048;-81
2023/08/21 12:24:49;;;;;;;4.35;3.90;;;37.20;96.70;;;;;;5046047;28;20095;-83
2023/08/21 12:27:16;;;;;;;4.50;4.10;;;37.30;96.70;;;;;;5039282;28;20116;-76
2023/08/21 12:29:44;;;;;;;5.50;4.20;;;37.30;96.70;;;;;;5055315;28;20115;-77
2023/08/21 12:32:15;;;;;;;4.35;3.95;;;37.40;96.70;;;;;;5042326;28;20049;-76
2023/08/21 12:34:43;;;;;;;3.80;3.50;;;37.30;96.50;;;;;;5042154;28;20043;-75
2023/08/21 12:37:12;;;;;;;4.28;3.50;;;37.50;96.50;;;;;;5062952;28;20086;-76
2023/08/21 12:39:43;;;;;;;4.00;3.60;;;37.70;95.70;;;;;;5067081;28;20044;-77
2023/08/21 12:42:11;;;;;;;5.72;3.80;;;37.70;95.00;;;;;;5066939;28;20041;-77
2023/08/21 12:44:40;;;;;;;6.85;3.72;;;37.40;95.50;;;;;;5048792;28;20084;-76
2023/08/21 12:47:08;;;;;;;5.53;3.97;;;37.40;96.10;;;;;;5067279;28;20060;-76
2023/08/21 12:49:36;;;;;;;4.75;4.22;;;37.50;96.50;;;;;;5048654;28;20674;-76
2023/08/21 12:52:06;;;;;;;3.85;3.58;;;37.70;95.90;;;;;;5050210;28;20040;-76
2023/08/21 12:54:39;;;;;;;4.35;4.05;;;37.90;95.70;;;;;;5049084;28;20037;-76
2023/08/21 12:57:07;;;;;;;4.10;3.80;;;37.90;95.50;;;;;;5065605;28;20044;-76